createdAt,value
2019-03-04T00:02:31.188Z,47.93
2019-03-04T00:05:02.403Z,39.88
2019-03-04T00:07:33.622Z,48.08
2019-03-04T00:10:05.698Z,44.05
2019-03-04T00:12:37.412Z,45.23
2019-03-04T00:15:11.728Z,39.08
2019-03-04T00:17:43.067Z,42.73
2019-03-04T00:20:15.264Z,44.75
2019-03-04T00:22:48.747Z,47.35
2019-03-04T00:25:21.400Z,41.68
2019-03-04T00:27:55.094Z,46.40
2019-03-04T00:30:26.826Z,43.55
2019-03-04T00:32:58.007Z,36.98
2019-03-04T00:35:29.189Z,41.30
2019-03-04T00:38:00.365Z,39.00
2019-03-04T00:40:31.595Z,45.00
2019-03-04T00:43:03.061Z,41.15
2019-03-04T00:45:35.145Z,40.12
2019-03-04T00:48:06.398Z,39.67
2019-03-04T00:50:39.207Z,40.05
2019-03-04T00:53:10.425Z,35.52
2019-03-04T00:55:42.421Z,36.35
2019-03-04T00:58:13.634Z,40.65
2019-03-04T01:00:45.872Z,35.55
2019-03-04T01:03:18.443Z,39.40
2019-03-04T01:05:49.691Z,39.53
2019-03-04T01:08:22.769Z,37.45
2019-03-04T01:10:54.027Z,40.78
2019-03-04T01:13:27.227Z,41.37
2019-03-04T01:15:58.467Z,40.58
2019-03-04T01:18:29.700Z,39.78
2019-03-04T01:21:00.920Z,41.50
2019-03-04T01:26:02.042Z,41.75
2019-03-04T01:28:33.204Z,37.35
2019-03-04T01:31:04.599Z,40.20
2019-03-04T01:33:35.808Z,48.73
2019-03-04T01:36:08.276Z,41.55
2019-03-04T01:38:39.460Z,42.62
2019-03-04T01:41:10.611Z,39.13
2019-03-04T01:43:42.722Z,40.05
2019-03-04T01:46:13.862Z,40.25
2019-03-04T01:48:47.401Z,41.28
2019-03-04T01:51:18.624Z,43.52
2019-03-04T01:53:49.931Z,40.58
2019-03-04T01:56:21.125Z,46.65
2019-03-04T01:58:52.415Z,42.20
2019-03-04T02:01:23.575Z,42.05
2019-03-04T02:03:54.760Z,49.60
2019-03-04T02:06:25.977Z,45.63
2019-03-04T02:08:57.427Z,42.35
2019-03-04T02:11:30.882Z,48.95
2019-03-04T02:14:04.375Z,41.53
2019-03-04T02:16:36.658Z,42.45
2019-03-04T02:19:07.958Z,43.45
2019-03-04T02:21:40.478Z,43.20
2019-03-04T02:24:20.908Z,42.73
2019-03-04T02:26:54.327Z,43.20
2019-03-04T02:29:29.136Z,46.45
2019-03-04T02:32:01.389Z,51.30
2019-03-04T02:34:32.794Z,42.93
2019-03-04T02:37:04.007Z,40.35
2019-03-04T02:39:35.796Z,43.68
2019-03-04T02:42:07.741Z,44.23
2019-03-04T02:44:38.984Z,43.28
2019-03-04T02:47:11.791Z,45.00
2019-03-04T02:49:45.279Z,47.45
2019-03-04T02:52:17.588Z,42.75
2019-03-04T02:54:48.786Z,45.75
2019-03-04T02:57:22.402Z,40.70
2019-03-04T02:59:53.570Z,47.30
2019-03-04T03:02:24.769Z,44.40
2019-03-04T03:04:56.908Z,51.98
2019-03-04T03:07:28.613Z,43.83
2019-03-04T03:09:59.784Z,45.73
2019-03-04T03:12:31.165Z,43.28
2019-03-04T03:15:03.911Z,46.85
2019-03-04T03:17:35.414Z,44.70
2019-03-04T03:20:10.243Z,46.98
2019-03-04T03:22:41.432Z,50.52
2019-03-04T03:25:13.633Z,50.98
2019-03-04T03:27:46.539Z,44.18
2019-03-04T03:30:21.767Z,43.10
2019-03-04T03:32:53.003Z,52.13
2019-03-04T03:35:24.219Z,50.63
2019-03-04T03:37:55.464Z,50.98
2019-03-04T03:40:26.719Z,44.93
2019-03-04T03:42:57.978Z,52.70
2019-03-04T03:45:29.156Z,51.90
2019-03-04T03:48:00.428Z,50.78
2019-03-04T03:50:31.561Z,48.65
2019-03-04T03:53:04.991Z,49.77
2019-03-04T03:55:36.196Z,49.35
2019-03-04T03:58:07.502Z,52.55
2019-03-04T04:00:38.626Z,52.45
2019-03-04T04:03:09.927Z,50.67
2019-03-04T04:05:41.089Z,50.52
2019-03-04T04:08:12.231Z,53.08
2019-03-04T04:10:43.633Z,54.98
2019-03-04T04:13:14.990Z,50.28
2019-03-04T04:15:46.240Z,54.18
2019-03-04T04:18:17.343Z,55.52
2019-03-04T04:20:48.611Z,49.55
2019-03-04T04:23:19.833Z,48.73
2019-03-04T04:25:51.562Z,55.95
2019-03-04T04:28:22.826Z,54.98
2019-03-04T04:30:54.101Z,50.83
2019-03-04T04:33:25.436Z,54.27
2019-03-04T04:35:58.081Z,50.52
2019-03-04T04:38:29.311Z,54.40
2019-03-04T04:41:00.564Z,55.63
2019-03-04T04:43:32.893Z,51.60
2019-03-04T04:46:04.212Z,53.10
2019-03-04T04:48:35.325Z,56.95
2019-03-04T04:51:06.568Z,54.88
2019-03-04T04:53:40.955Z,55.92
2019-03-04T04:56:12.147Z,49.60
2019-03-04T04:58:44.486Z,51.73
2019-03-04T05:01:15.749Z,56.60
2019-03-04T05:03:46.908Z,58.58
2019-03-04T05:08:48.594Z,56.65
2019-03-04T05:11:19.725Z,56.42
2019-03-04T05:13:50.924Z,57.23
2019-03-04T05:16:23.259Z,54.30
2019-03-04T05:18:54.435Z,59.08
2019-03-04T05:21:26.518Z,58.52
2019-03-04T05:23:57.778Z,60.92
2019-03-04T05:26:30.517Z,59.63
2019-03-04T05:29:01.740Z,59.00
2019-03-04T05:31:33.960Z,53.90
2019-03-04T05:34:06.792Z,57.80
2019-03-04T05:36:40.019Z,54.40
2019-03-04T05:39:13.041Z,52.90
2019-03-04T05:41:48.649Z,55.75
2019-03-04T05:44:19.950Z,54.33
2019-03-04T05:46:51.153Z,59.00
2019-03-04T05:49:24.362Z,56.45
2019-03-04T05:52:59.786Z,55.55
2019-03-04T05:55:33.282Z,59.03
2019-03-04T05:58:06.580Z,55.28
2019-03-04T06:03:21.564Z,59.13
2019-03-04T06:05:53.024Z,55.43
2019-03-04T06:08:25.305Z,58.35
2019-03-04T06:10:58.065Z,60.12
2019-03-04T06:13:29.243Z,56.02
2019-03-04T06:16:01.640Z,59.75
2019-03-04T06:18:32.859Z,61.10
2019-03-04T06:21:04.139Z,60.25
2019-03-04T06:23:35.426Z,55.73
2019-03-04T06:26:07.553Z,60.23
2019-03-04T06:28:40.465Z,53.80
2019-03-04T06:31:13.902Z,55.23
2019-03-04T06:33:45.078Z,52.88
2019-03-04T06:36:16.302Z,57.00
2019-03-04T06:38:50.389Z,62.00
2019-03-04T06:41:22.632Z,60.90
2019-03-04T06:43:54.341Z,61.02
2019-03-04T06:46:25.552Z,53.48
2019-03-04T06:48:56.659Z,49.70
2019-03-04T06:51:33.668Z,52.23
2019-03-04T06:54:12.359Z,43.08
2019-03-04T06:56:49.772Z,53.23
2019-03-04T06:59:43.834Z,48.15
2019-03-04T07:02:25.429Z,46.23
2019-03-04T07:05:05.606Z,49.48
2019-03-04T07:07:36.889Z,54.10
2019-03-04T07:10:09.110Z,46.92
2019-03-04T07:12:40.372Z,44.80
2019-03-04T07:15:12.537Z,46.13
2019-03-04T07:17:43.845Z,56.30
2019-03-04T07:20:17.475Z,44.90
2019-03-04T07:22:52.791Z,50.12
2019-03-04T07:25:24.407Z,50.35
2019-03-04T07:27:56.870Z,46.95
2019-03-04T07:30:28.023Z,52.65
2019-03-04T07:32:59.217Z,45.83
2019-03-04T07:35:31.273Z,48.28
2019-03-04T07:38:23.876Z,44.05
2019-03-04T07:40:55.762Z,46.95
2019-03-04T07:43:26.988Z,55.23
2019-03-04T07:45:58.232Z,52.03
2019-03-04T07:48:29.365Z,47.70
2019-03-04T07:51:12.610Z,50.83
2019-03-04T07:53:46.646Z,50.45
2019-03-04T07:56:17.704Z,50.08
2019-03-04T07:58:49.410Z,47.38
2019-03-04T08:01:20.636Z,49.00
2019-03-04T08:06:31.895Z,46.65
2019-03-04T08:09:27.326Z,46.48
2019-03-04T08:12:13.681Z,48.60
2019-03-04T08:14:45.877Z,47.25
2019-03-04T08:17:17.220Z,45.40
2019-03-04T08:19:48.951Z,48.78
2019-03-04T08:22:20.107Z,45.17
2019-03-04T08:24:52.761Z,40.00
2019-03-04T08:27:28.703Z,44.65
2019-03-04T08:30:00.059Z,49.53
2019-03-04T08:32:31.658Z,44.77
2019-03-04T08:35:03.179Z,44.27
2019-03-04T08:37:34.364Z,43.42
2019-03-04T08:40:08.683Z,43.23
2019-03-04T08:42:41.460Z,43.13
2019-03-04T08:45:16.527Z,47.80
2019-03-04T08:47:47.787Z,43.38
2019-03-04T08:50:20.579Z,45.35
2019-03-04T08:52:51.809Z,45.08
2019-03-04T08:55:23.123Z,40.75
2019-03-04T08:57:54.519Z,41.92
2019-03-04T09:00:29.601Z,39.78
2019-03-04T09:03:00.920Z,45.70
2019-03-04T09:05:33.684Z,51.23
2019-03-04T09:08:07.953Z,38.88
2019-03-04T09:10:39.094Z,42.93
2019-03-04T09:13:10.401Z,43.08
2019-03-04T09:15:41.609Z,42.95
2019-03-04T09:18:12.898Z,41.63
2019-03-04T09:20:45.224Z,37.25
2019-03-04T09:23:16.900Z,41.77
2019-03-04T09:25:53.711Z,40.28
2019-03-04T09:28:25.008Z,38.80
2019-03-04T09:30:57.219Z,41.15
2019-03-04T09:33:28.871Z,42.88
2019-03-04T09:36:00.174Z,41.23
2019-03-04T09:38:31.698Z,46.05
2019-03-04T09:41:02.857Z,46.40
2019-03-04T09:43:34.200Z,41.37
2019-03-04T09:46:05.381Z,43.95
2019-03-04T09:48:37.640Z,45.35
2019-03-04T09:51:10.304Z,44.83
2019-03-04T09:53:44.224Z,43.90
2019-03-04T09:56:15.599Z,46.73
2019-03-04T09:58:47.224Z,42.48
2019-03-04T10:01:30.574Z,46.88
2019-03-04T10:04:16.941Z,48.08
2019-03-04T10:07:09.255Z,49.55
2019-03-04T10:09:43.700Z,46.37
2019-03-04T10:12:45.389Z,41.33
2019-03-04T10:15:37.770Z,41.68
2019-03-04T10:18:28.427Z,48.48
2019-03-04T10:21:38.404Z,46.88
2019-03-04T10:24:18.035Z,45.25
2019-03-04T10:27:04.305Z,43.25
2019-03-04T10:30:01.348Z,42.00
2019-03-04T10:32:47.854Z,41.15
2019-03-04T10:35:40.216Z,46.05
2019-03-04T10:38:22.532Z,44.10
2019-03-04T10:41:11.582Z,42.23
2019-03-04T10:44:10.013Z,42.35
2019-03-04T10:46:54.957Z,39.75
2019-03-04T10:49:30.206Z,41.37
2019-03-04T10:52:03.409Z,43.25
2019-03-04T10:54:44.402Z,37.70
2019-03-04T10:57:36.914Z,40.08
2019-03-04T11:00:17.285Z,43.48
2019-03-04T11:02:50.191Z,43.60
2019-03-04T11:05:23.100Z,40.85
2019-03-04T11:07:54.854Z,44.70
2019-03-04T11:10:26.458Z,45.08
2019-03-04T11:12:58.174Z,42.90
2019-03-04T11:15:29.379Z,37.03
2019-03-04T11:18:03.268Z,38.45
2019-03-04T11:20:34.877Z,40.38
2019-03-04T11:23:10.372Z,44.00
2019-03-04T11:25:45.267Z,41.42
2019-03-04T11:28:19.582Z,43.28
2019-03-04T11:30:52.691Z,45.10
2019-03-04T11:33:24.305Z,40.92
2019-03-04T11:35:55.642Z,45.05
2019-03-04T11:38:37.475Z,43.10
2019-03-04T11:41:10.943Z,45.50
2019-03-04T11:43:42.202Z,45.73
2019-03-04T11:46:16.181Z,46.58
2019-03-04T11:48:47.563Z,42.73
2019-03-04T11:51:18.856Z,45.05
2019-03-04T11:53:50.089Z,40.70
2019-03-04T11:57:46.603Z,44.83
2019-03-04T12:00:36.263Z,39.78
2019-03-04T12:05:45.973Z,38.40
2019-03-04T12:08:20.145Z,39.75
2019-03-04T12:10:51.913Z,43.52
2019-03-04T12:13:23.105Z,41.08
2019-03-04T12:15:54.406Z,38.88
2019-03-04T12:18:25.629Z,45.50
2019-03-04T12:20:57.361Z,42.80
2019-03-04T12:23:31.251Z,40.78
2019-03-04T12:26:09.321Z,42.13
2019-03-04T12:28:41.653Z,44.60
2019-03-04T12:31:17.975Z,42.98
2019-03-04T12:33:49.299Z,41.58
2019-03-04T12:36:20.558Z,42.25
2019-03-04T12:38:54.876Z,40.17
2019-03-04T12:41:26.167Z,38.90
2019-03-04T12:52:33.571Z,41.53
2019-03-04T12:57:36.638Z,41.45
2019-03-04T13:00:14.450Z,40.33
2019-03-04T13:02:57.157Z,44.25
2019-03-04T13:05:20.902Z,45.73
2019-03-04T13:07:52.057Z,45.83
2019-03-04T13:10:24.005Z,41.50
2019-03-04T13:12:55.158Z,48.60
2019-03-04T13:15:31.666Z,46.28
2019-03-04T13:18:03.392Z,48.15
2019-03-04T13:20:34.787Z,45.70
2019-03-04T13:23:06.123Z,41.68
2019-03-04T13:25:37.324Z,40.20
2019-03-04T13:28:08.852Z,42.15
2019-03-04T13:30:41.362Z,38.33
2019-03-04T13:33:12.529Z,40.10
2019-03-04T13:35:44.936Z,41.60
2019-03-04T13:38:16.251Z,41.20
2019-03-04T13:40:48.477Z,41.48
2019-03-04T13:43:19.649Z,42.40
2019-03-04T13:48:24.986Z,42.93
2019-03-04T13:51:00.040Z,43.58
2019-03-04T13:53:31.878Z,38.45
2019-03-04T13:56:03.137Z,37.63
2019-03-04T13:58:34.870Z,40.25
2019-03-04T14:01:06.346Z,37.15
2019-03-04T14:03:38.158Z,43.33
2019-03-04T14:06:09.396Z,39.18
2019-03-04T14:08:40.736Z,35.85
2019-03-04T14:11:12.950Z,35.35
2019-03-04T14:13:45.202Z,36.55
2019-03-04T14:16:19.160Z,39.33
2019-03-04T14:18:50.422Z,34.78
2019-03-04T14:21:21.689Z,40.63
2019-03-04T14:23:52.944Z,36.77
2019-03-04T14:26:24.957Z,33.90
2019-03-04T14:28:57.765Z,37.08
2019-03-04T14:31:31.535Z,33.55
2019-03-04T14:34:05.932Z,37.35
2019-03-04T14:36:37.546Z,36.80
2019-03-04T14:39:11.380Z,37.98
2019-03-04T14:41:42.638Z,39.18
2019-03-04T14:45:04.912Z,35.15
2019-03-04T14:47:39.610Z,38.45
2019-03-04T14:50:12.885Z,36.20
2019-03-04T14:52:44.134Z,36.80
2019-03-04T14:55:40.007Z,35.90
2019-03-04T14:58:12.888Z,33.95
2019-03-04T15:00:46.186Z,32.55
2019-03-04T15:03:24.170Z,42.03
2019-03-04T15:06:06.312Z,35.35
2019-03-04T15:08:30.509Z,38.38
2019-03-04T15:11:01.968Z,32.65
2019-03-04T15:13:33.322Z,31.70
2019-03-04T15:16:04.640Z,33.65
2019-03-04T15:18:35.869Z,29.20
2019-03-04T15:21:07.216Z,32.85
2019-03-04T15:23:38.422Z,30.00
2019-03-04T15:26:09.743Z,27.67
2019-03-04T15:28:42.547Z,29.77
2019-03-04T15:31:14.040Z,31.87
2019-03-04T15:33:45.462Z,28.42
2019-03-04T15:36:16.990Z,27.22
2019-03-04T15:38:48.271Z,34.13
2019-03-04T15:41:20.526Z,31.42
2019-03-04T15:43:51.763Z,34.60
2019-03-04T15:46:23.063Z,31.05
2019-03-04T15:48:54.303Z,29.35
2019-03-04T15:51:26.931Z,27.73
2019-03-04T15:53:59.383Z,31.57
2019-03-04T15:56:31.554Z,22.82
2019-03-04T15:59:03.560Z,35.88
2019-03-04T16:01:35.023Z,31.12
2019-03-04T16:04:07.292Z,39.85
2019-03-04T16:06:41.974Z,31.35
2019-03-04T16:09:18.734Z,32.65
2019-03-04T16:11:51.296Z,28.38
2019-03-04T16:14:24.213Z,34.10
2019-03-04T16:16:57.371Z,31.87
2019-03-04T16:19:28.599Z,28.45
2019-03-04T16:22:01.511Z,32.83
2019-03-04T16:24:35.046Z,35.70
2019-03-04T16:27:12.020Z,30.08
2019-03-04T16:29:45.856Z,29.85
2019-03-04T16:32:17.079Z,27.90
2019-03-04T16:34:48.308Z,36.80
2019-03-04T16:37:19.562Z,39.25
2019-03-04T16:39:52.380Z,36.93
2019-03-04T16:42:23.814Z,32.25
2019-03-04T16:44:55.171Z,39.48
2019-03-04T16:47:27.149Z,34.50
2019-03-04T16:50:01.185Z,30.45
2019-03-04T16:52:35.185Z,32.70
2019-03-04T16:55:09.298Z,34.20
2019-03-04T16:57:40.512Z,34.30
2019-03-04T17:00:17.013Z,30.82
2019-03-04T17:02:51.164Z,33.45
2019-03-04T17:05:22.377Z,32.35
2019-03-04T17:07:54.460Z,38.75
2019-03-04T17:10:26.343Z,33.58
2019-03-04T17:12:59.294Z,33.15
2019-03-04T17:15:33.471Z,32.38
2019-03-04T17:18:05.896Z,28.85
2019-03-04T17:20:37.083Z,31.37
2019-03-04T17:23:08.481Z,32.53
2019-03-04T17:25:41.524Z,30.80
2019-03-04T17:28:13.868Z,34.60
2019-03-04T17:30:45.615Z,31.97
2019-03-04T17:33:16.944Z,29.25
2019-03-04T17:35:48.186Z,26.87
2019-03-04T17:40:52.978Z,29.70
2019-03-04T17:43:24.722Z,32.00
2019-03-04T17:45:55.975Z,32.17
2019-03-04T17:48:27.248Z,31.42
2019-03-04T17:50:58.538Z,28.45
2019-03-04T17:53:30.201Z,29.00
2019-03-04T17:56:01.525Z,35.38
2019-03-04T17:58:33.863Z,33.67
2019-03-04T18:01:05.383Z,30.52
2019-03-04T18:03:36.513Z,33.38
2019-03-04T18:06:07.745Z,34.33
2019-03-04T18:08:39.017Z,36.73
2019-03-04T18:11:10.225Z,36.53
2019-03-04T18:13:41.546Z,37.65
2019-03-04T18:16:12.816Z,34.80
2019-03-04T18:18:45.706Z,36.85
2019-03-04T18:21:17.602Z,33.70
2019-03-04T18:23:49.825Z,35.88
2019-03-04T18:26:27.132Z,33.95
2019-03-04T18:29:04.449Z,36.15
2019-03-04T18:31:50.693Z,36.13
2019-03-04T18:34:30.862Z,34.10
2019-03-04T18:37:05.249Z,34.15
2019-03-04T18:39:45.585Z,33.78
2019-03-04T18:42:54.974Z,37.28
2019-03-04T18:45:49.045Z,31.50
2019-03-04T18:48:42.257Z,36.45
2019-03-04T18:51:13.713Z,33.38
2019-03-04T18:53:46.696Z,36.10
2019-03-04T18:56:22.046Z,37.90
2019-03-04T18:58:52.304Z,36.28
2019-03-04T19:01:24.062Z,34.60
2019-03-04T19:03:55.207Z,35.95
2019-03-04T19:06:26.499Z,35.13
2019-03-04T19:08:57.781Z,40.48
2019-03-04T19:11:29.217Z,37.10
2019-03-04T19:14:00.551Z,42.08
2019-03-04T19:16:32.083Z,35.43
2019-03-04T19:19:03.226Z,38.98
2019-03-04T19:21:35.733Z,31.85
2019-03-04T19:24:07.072Z,36.73
2019-03-04T19:26:38.323Z,35.20
2019-03-04T19:29:10.876Z,35.10
2019-03-04T19:31:42.567Z,35.80
2019-03-04T19:34:17.293Z,34.35
2019-03-04T19:36:50.345Z,39.45
2019-03-04T19:39:21.723Z,41.92
2019-03-04T19:41:52.851Z,36.58
2019-03-04T19:44:24.085Z,39.42
2019-03-04T19:46:55.291Z,36.73
2019-03-04T19:49:26.605Z,35.58
2019-03-04T19:51:58.021Z,37.30
2019-03-04T19:54:31.215Z,36.63
2019-03-04T19:57:04.818Z,38.85
2019-03-04T19:59:36.067Z,34.13
2019-03-04T20:02:07.363Z,37.73
2019-03-04T20:04:38.564Z,40.25
2019-03-04T20:07:11.356Z,37.40
2019-03-04T20:09:42.416Z,37.40
2019-03-04T20:14:44.104Z,34.90
2019-03-04T20:17:15.993Z,34.27
2019-03-04T20:19:47.108Z,33.42
2019-03-04T20:22:19.145Z,38.90
2019-03-04T20:24:50.459Z,35.03
2019-03-04T20:27:21.607Z,37.90
2019-03-04T20:29:54.362Z,41.23
2019-03-04T20:32:26.828Z,33.98
2019-03-04T20:34:58.016Z,33.90
2019-03-04T20:37:29.234Z,33.00
2019-03-04T20:40:00.522Z,33.80
2019-03-04T20:42:36.271Z,33.67
2019-03-04T20:45:17.824Z,39.48
2019-03-04T20:47:51.193Z,33.65
2019-03-04T20:50:25.759Z,35.70
2019-03-04T20:52:57.017Z,41.83
2019-03-04T20:55:28.291Z,35.68
2019-03-04T20:57:59.327Z,34.23
2019-03-04T21:00:33.605Z,39.08
2019-03-04T21:03:08.287Z,32.75
2019-03-04T21:05:43.994Z,35.25
2019-03-04T21:08:15.536Z,37.03
2019-03-04T21:10:51.140Z,37.50
2019-03-04T21:13:34.904Z,35.70
2019-03-04T21:15:57.011Z,39.10
2019-03-04T21:18:30.248Z,34.18
2019-03-04T21:21:03.615Z,40.05
2019-03-04T21:23:35.768Z,37.10
2019-03-04T21:26:11.303Z,35.50
2019-03-04T21:29:15.817Z,39.63
2019-03-04T21:32:14.622Z,34.20
2019-03-04T21:34:58.231Z,36.33
2019-03-04T21:37:32.934Z,38.88
2019-03-04T21:40:25.878Z,38.13
2019-03-04T21:43:12.006Z,42.78
2019-03-04T21:45:50.342Z,34.60
2019-03-04T21:48:42.576Z,36.90
2019-03-04T21:51:26.100Z,39.20
2019-03-04T21:53:58.935Z,37.35
2019-03-04T21:56:52.232Z,38.60
2019-03-04T21:59:25.197Z,39.23
2019-03-04T22:02:17.707Z,43.60
2019-03-04T22:04:48.945Z,37.50
2019-03-04T22:07:20.239Z,40.98
2019-03-04T22:09:51.579Z,39.80
2019-03-04T22:12:22.781Z,39.18
2019-03-04T22:14:53.949Z,37.83
2019-03-04T22:17:25.467Z,41.23
2019-03-04T22:19:56.733Z,38.28
2019-03-04T22:22:28.072Z,40.30
2019-03-04T22:25:01.877Z,44.30
2019-03-04T22:27:34.234Z,37.85
2019-03-04T22:30:11.495Z,36.17
2019-03-04T22:32:42.823Z,39.15
2019-03-04T22:35:17.209Z,41.88
2019-03-04T22:37:48.612Z,43.78
2019-03-04T22:40:27.722Z,41.33
2019-03-04T22:42:58.902Z,39.60
2019-03-04T22:45:30.110Z,38.35
2019-03-04T22:48:01.290Z,46.25
2019-03-04T22:50:32.709Z,44.53
2019-03-04T22:53:03.941Z,39.80
2019-03-04T22:55:38.645Z,42.53
2019-03-04T22:58:09.910Z,42.75
2019-03-04T23:00:54.896Z,40.17
2019-03-04T23:03:28.262Z,46.70
2019-03-04T23:06:08.135Z,49.03
2019-03-04T23:08:39.907Z,41.65
2019-03-04T23:11:11.209Z,41.95
2019-03-04T23:13:51.723Z,42.93
2019-03-04T23:16:33.255Z,37.67
2019-03-04T23:19:04.456Z,38.20
2019-03-04T23:21:36.242Z,39.18
2019-03-04T23:24:07.416Z,40.95
2019-03-04T23:26:38.805Z,44.67
2019-03-04T23:29:09.957Z,38.75
2019-03-04T23:31:41.213Z,35.60
2019-03-04T23:34:12.472Z,39.98
2019-03-04T23:36:43.800Z,41.25
2019-03-04T23:39:15.096Z,38.00
2019-03-04T23:41:46.435Z,42.08
2019-03-04T23:44:22.642Z,38.63
2019-03-04T23:46:54.313Z,37.45
2019-03-04T23:49:29.949Z,41.35
2019-03-04T23:52:01.887Z,37.75
2019-03-04T23:54:33.077Z,45.10
2019-03-04T23:57:04.384Z,37.65
2019-03-04T23:59:35.607Z,35.10
